sensor_id;sensor_type;location;lat;lon;timestamp;P1;durP1;ratioP1;P2;durP2;ratioP2
71435;SDS011;59251;51.326;12.370;2023-02-14T00:01:43;31.13;;;12.07;;
71435;SDS011;59251;51.326;12.370;2023-02-14T00:04:09;33.25;;;14.77;;
71435;SDS011;59251;51.326;12.370;2023-02-14T00:06:35;34.73;;;14.90;;
71435;SDS011;59251;51.326;12.370;2023-02-14T00:09:03;28.92;;;13.00;;
71435;SDS011;59251;51.326;12.370;2023-02-14T00:11:33;34.42;;;13.55;;
71435;SDS011;59251;51.326;12.370;2023-02-14T00:13:58;32.87;;;13.63;;
71435;SDS011;59251;51.326;12.370;2023-02-14T00:16:42;33.63;;;15.18;;
71435;SDS011;59251;51.326;12.370;2023-02-14T00:19:09;34.50;;;13.75;;
71435;SDS011;59251;51.326;12.370;2023-02-14T00:21:37;32.23;;;13.47;;
71435;SDS011;59251;51.326;12.370;2023-02-14T00:24:08;33.58;;;13.80;;
71435;SDS011;59251;51.326;12.370;2023-02-14T00:26:38;34.85;;;13.80;;
71435;SDS011;59251;51.326;12.370;2023-02-14T00:29:04;33.92;;;14.13;;
71435;SDS011;59251;51.326;12.370;2023-02-14T00:31:31;33.38;;;13.88;;
71435;SDS011;59251;51.326;12.370;2023-02-14T00:33:57;29.60;;;13.10;;
71435;SDS011;59251;51.326;12.370;2023-02-14T00:36:22;29.92;;;12.88;;
71435;SDS011;59251;51.326;12.370;2023-02-14T00:38:47;36.33;;;14.20;;
71435;SDS011;59251;51.326;12.370;2023-02-14T00:41:13;30.13;;;13.33;;
71435;SDS011;59251;51.326;12.370;2023-02-14T00:43:43;30.60;;;13.43;;
71435;SDS011;59251;51.326;12.370;2023-02-14T00:46:13;35.33;;;14.45;;
71435;SDS011;59251;51.326;12.370;2023-02-14T00:48:39;37.30;;;14.17;;
71435;SDS011;59251;51.326;12.370;2023-02-14T00:51:04;33.63;;;13.25;;
71435;SDS011;59251;51.326;12.370;2023-02-14T00:53:30;34.37;;;14.23;;
71435;SDS011;59251;51.326;12.370;2023-02-14T00:55:55;35.00;;;15.37;;
71435;SDS011;59251;51.326;12.370;2023-02-14T00:58:20;33.83;;;14.10;;
71435;SDS011;59251;51.326;12.370;2023-02-14T01:00:46;33.00;;;13.68;;
71435;SDS011;59251;51.326;12.370;2023-02-14T01:03:11;35.08;;;13.48;;
71435;SDS011;59251;51.326;12.370;2023-02-14T01:05:36;36.37;;;14.60;;
71435;SDS011;59251;51.326;12.370;2023-02-14T01:08:02;32.90;;;13.20;;
71435;SDS011;59251;51.326;12.370;2023-02-14T01:10:28;32.17;;;13.95;;
71435;SDS011;59251;51.326;12.370;2023-02-14T01:12:53;33.60;;;13.03;;
71435;SDS011;59251;51.326;12.370;2023-02-14T01:15:19;32.33;;;13.47;;
71435;SDS011;59251;51.326;12.370;2023-02-14T01:17:44;32.03;;;13.67;;
71435;SDS011;59251;51.326;12.370;2023-02-14T01:20:10;32.70;;;13.40;;
71435;SDS011;59251;51.326;12.370;2023-02-14T01:22:36;32.53;;;13.85;;
71435;SDS011;59251;51.326;12.370;2023-02-14T01:25:02;32.97;;;13.30;;
71435;SDS011;59251;51.326;12.370;2023-02-14T01:27:28;29.42;;;12.77;;
71435;SDS011;59251;51.326;12.370;2023-02-14T01:29:53;34.37;;;13.67;;
71435;SDS011;59251;51.326;12.370;2023-02-14T01:32:19;35.47;;;15.20;;
71435;SDS011;59251;51.326;12.370;2023-02-14T01:34:44;35.38;;;14.18;;
71435;SDS011;59251;51.326;12.370;2023-02-14T01:37:09;35.15;;;14.20;;
71435;SDS011;59251;51.326;12.370;2023-02-14T01:39:35;35.80;;;14.10;;
71435;SDS011;59251;51.326;12.370;2023-02-14T01:42:00;37.43;;;14.97;;
71435;SDS011;59251;51.326;12.370;2023-02-14T01:47:01;39.22;;;15.60;;
71435;SDS011;59251;51.326;12.370;2023-02-14T01:49:33;42.53;;;15.63;;
71435;SDS011;59251;51.326;12.370;2023-02-14T01:52:04;45.92;;;16.90;;
71435;SDS011;59251;51.326;12.370;2023-02-14T01:54:36;35.53;;;13.77;;
71435;SDS011;59251;51.326;12.370;2023-02-14T01:57:09;38.33;;;14.13;;
71435;SDS011;59251;51.326;12.370;2023-02-14T01:59:37;36.30;;;14.43;;
71435;SDS011;59251;51.326;12.370;2023-02-14T02:02:06;37.78;;;15.57;;
71435;SDS011;59251;51.326;12.370;2023-02-14T02:04:33;40.90;;;15.93;;
71435;SDS011;59251;51.326;12.370;2023-02-14T02:07:04;38.50;;;14.77;;
71435;SDS011;59251;51.326;12.370;2023-02-14T02:09:32;40.70;;;15.32;;
71435;SDS011;59251;51.326;12.370;2023-02-14T02:12:00;39.97;;;15.90;;
71435;SDS011;59251;51.326;12.370;2023-02-14T02:14:26;37.13;;;14.70;;
71435;SDS011;59251;51.326;12.370;2023-02-14T02:41:47;38.10;;;14.85;;
71435;SDS011;59251;51.326;12.370;2023-02-14T02:47:05;36.72;;;13.80;;
71435;SDS011;59251;51.326;12.370;2023-02-14T02:58:27;37.28;;;14.90;;
71435;SDS011;59251;51.326;12.370;2023-02-14T03:00:57;37.00;;;13.93;;
71435;SDS011;59251;51.326;12.370;2023-02-14T03:03:24;36.25;;;14.32;;
71435;SDS011;59251;51.326;12.370;2023-02-14T03:06:10;38.27;;;14.23;;
71435;SDS011;59251;51.326;12.370;2023-02-14T03:08:35;34.83;;;14.48;;
71435;SDS011;59251;51.326;12.370;2023-02-14T03:11:01;36.87;;;13.30;;
71435;SDS011;59251;51.326;12.370;2023-02-14T03:13:41;37.13;;;14.38;;
71435;SDS011;59251;51.326;12.370;2023-02-14T03:21:36;35.83;;;13.60;;
71435;SDS011;59251;51.326;12.370;2023-02-14T03:24:08;33.65;;;13.05;;
71435;SDS011;59251;51.326;12.370;2023-02-14T03:29:22;35.10;;;12.80;;
71435;SDS011;59251;51.326;12.370;2023-02-14T03:34:37;29.30;;;12.35;;
71435;SDS011;59251;51.326;12.370;2023-02-14T03:37:10;31.45;;;13.23;;
71435;SDS011;59251;51.326;12.370;2023-02-14T03:42:06;31.27;;;12.30;;
71435;SDS011;59251;51.326;12.370;2023-02-14T03:44:36;30.40;;;12.57;;
71435;SDS011;59251;51.326;12.370;2023-02-14T03:47:08;30.95;;;12.27;;
71435;SDS011;59251;51.326;12.370;2023-02-14T03:49:39;28.35;;;12.02;;
71435;SDS011;59251;51.326;12.370;2023-02-14T03:52:08;29.85;;;11.77;;
71435;SDS011;59251;51.326;12.370;2023-02-14T03:54:34;30.27;;;12.00;;
71435;SDS011;59251;51.326;12.370;2023-02-14T03:59:31;26.88;;;11.43;;
71435;SDS011;59251;51.326;12.370;2023-02-14T04:02:02;29.55;;;11.77;;
71435;SDS011;59251;51.326;12.370;2023-02-14T04:04:33;31.60;;;11.97;;
71435;SDS011;59251;51.326;12.370;2023-02-14T04:07:13;27.63;;;12.10;;
71435;SDS011;59251;51.326;12.370;2023-02-14T04:09:40;27.95;;;11.88;;
71435;SDS011;59251;51.326;12.370;2023-02-14T04:12:05;32.07;;;11.93;;
71435;SDS011;59251;51.326;12.370;2023-02-14T04:14:31;29.63;;;11.48;;
71435;SDS011;59251;51.326;12.370;2023-02-14T04:16:57;30.20;;;11.83;;
71435;SDS011;59251;51.326;12.370;2023-02-14T04:19:41;27.80;;;11.13;;
71435;SDS011;59251;51.326;12.370;2023-02-14T04:22:06;29.07;;;12.10;;
71435;SDS011;59251;51.326;12.370;2023-02-14T04:24:31;29.53;;;11.97;;
71435;SDS011;59251;51.326;12.370;2023-02-14T04:26:57;28.77;;;11.23;;
71435;SDS011;59251;51.326;12.370;2023-02-14T04:29:35;30.60;;;11.80;;
71435;SDS011;59251;51.326;12.370;2023-02-14T04:32:19;30.98;;;11.98;;
71435;SDS011;59251;51.326;12.370;2023-02-14T04:34:46;28.05;;;11.50;;
71435;SDS011;59251;51.326;12.370;2023-02-14T04:37:12;30.57;;;11.93;;
71435;SDS011;59251;51.326;12.370;2023-02-14T04:39:38;30.42;;;12.48;;
71435;SDS011;59251;51.326;12.370;2023-02-14T04:42:04;32.27;;;12.53;;
71435;SDS011;59251;51.326;12.370;2023-02-14T04:44:29;28.48;;;11.52;;
71435;SDS011;59251;51.326;12.370;2023-02-14T04:46:55;29.83;;;12.13;;
71435;SDS011;59251;51.326;12.370;2023-02-14T04:49:20;27.43;;;11.80;;
71435;SDS011;59251;51.326;12.370;2023-02-14T04:51:45;26.70;;;11.20;;
71435;SDS011;59251;51.326;12.370;2023-02-14T04:54:11;29.80;;;11.95;;
71435;SDS011;59251;51.326;12.370;2023-02-14T04:56:37;28.50;;;11.48;;
71435;SDS011;59251;51.326;12.370;2023-02-14T04:59:02;27.97;;;11.70;;
71435;SDS011;59251;51.326;12.370;2023-02-14T05:01:28;28.00;;;11.32;;
71435;SDS011;59251;51.326;12.370;2023-02-14T05:03:53;26.77;;;10.77;;
71435;SDS011;59251;51.326;12.370;2023-02-14T05:06:19;24.73;;;10.63;;
71435;SDS011;59251;51.326;12.370;2023-02-14T05:08:44;25.87;;;10.20;;
71435;SDS011;59251;51.326;12.370;2023-02-14T05:11:09;28.77;;;11.93;;
71435;SDS011;59251;51.326;12.370;2023-02-14T05:13:35;26.10;;;10.70;;
71435;SDS011;59251;51.326;12.370;2023-02-14T05:16:00;24.33;;;10.63;;
71435;SDS011;59251;51.326;12.370;2023-02-14T05:18:26;24.20;;;10.40;;
71435;SDS011;59251;51.326;12.370;2023-02-14T05:20:52;26.47;;;11.17;;
71435;SDS011;59251;51.326;12.370;2023-02-14T05:23:18;25.25;;;10.82;;
71435;SDS011;59251;51.326;12.370;2023-02-14T05:25:48;26.92;;;10.82;;
71435;SDS011;59251;51.326;12.370;2023-02-14T05:28:14;25.07;;;10.50;;
71435;SDS011;59251;51.326;12.370;2023-02-14T05:30:40;23.70;;;10.50;;
71435;SDS011;59251;51.326;12.370;2023-02-14T05:33:05;24.57;;;9.37;;
71435;SDS011;59251;51.326;12.370;2023-02-14T05:35:31;23.63;;;10.40;;
71435;SDS011;59251;51.326;12.370;2023-02-14T05:37:56;25.15;;;10.32;;
71435;SDS011;59251;51.326;12.370;2023-02-14T05:40:22;25.25;;;10.45;;
71435;SDS011;59251;51.326;12.370;2023-02-14T05:42:47;22.23;;;9.83;;
71435;SDS011;59251;51.326;12.370;2023-02-14T05:45:12;28.17;;;11.17;;
71435;SDS011;59251;51.326;12.370;2023-02-14T05:47:38;27.27;;;11.47;;
71435;SDS011;59251;51.326;12.370;2023-02-14T05:50:04;26.58;;;10.60;;
71435;SDS011;59251;51.326;12.370;2023-02-14T05:52:30;26.47;;;11.43;;
71435;SDS011;59251;51.326;12.370;2023-02-14T05:54:55;25.27;;;11.40;;
71435;SDS011;59251;51.326;12.370;2023-02-14T05:57:21;23.27;;;10.20;;
71435;SDS011;59251;51.326;12.370;2023-02-14T05:59:46;27.90;;;10.63;;
71435;SDS011;59251;51.326;12.370;2023-02-14T06:02:11;26.90;;;11.07;;
71435;SDS011;59251;51.326;12.370;2023-02-14T06:04:38;25.20;;;10.18;;
71435;SDS011;59251;51.326;12.370;2023-02-14T06:07:03;24.20;;;10.80;;
71435;SDS011;59251;51.326;12.370;2023-02-14T06:09:29;23.60;;;10.87;;
71435;SDS011;59251;51.326;12.370;2023-02-14T06:11:54;23.70;;;10.60;;
71435;SDS011;59251;51.326;12.370;2023-02-14T06:14:19;25.02;;;10.93;;
71435;SDS011;59251;51.326;12.370;2023-02-14T06:16:45;25.63;;;9.87;;
71435;SDS011;59251;51.326;12.370;2023-02-14T06:19:10;27.93;;;10.63;;
71435;SDS011;59251;51.326;12.370;2023-02-14T06:21:36;21.90;;;10.13;;
71435;SDS011;59251;51.326;12.370;2023-02-14T06:24:01;25.93;;;10.73;;
71435;SDS011;59251;51.326;12.370;2023-02-14T06:26:26;23.37;;;9.77;;
71435;SDS011;59251;51.326;12.370;2023-02-14T06:28:53;23.38;;;10.82;;
71435;SDS011;59251;51.326;12.370;2023-02-14T06:31:19;25.58;;;10.43;;
71435;SDS011;59251;51.326;12.370;2023-02-14T06:33:45;25.90;;;10.35;;
71435;SDS011;59251;51.326;12.370;2023-02-14T06:36:11;23.83;;;10.20;;
71435;SDS011;59251;51.326;12.370;2023-02-14T06:38:36;24.53;;;10.37;;
71435;SDS011;59251;51.326;12.370;2023-02-14T06:41:02;27.95;;;11.32;;
71435;SDS011;59251;51.326;12.370;2023-02-14T06:43:29;26.07;;;10.90;;
71435;SDS011;59251;51.326;12.370;2023-02-14T06:45:54;26.05;;;10.85;;
71435;SDS011;59251;51.326;12.370;2023-02-14T06:48:19;29.30;;;10.77;;
71435;SDS011;59251;51.326;12.370;2023-02-14T06:50:45;25.80;;;10.57;;
71435;SDS011;59251;51.326;12.370;2023-02-14T06:53:11;22.13;;;10.53;;
71435;SDS011;59251;51.326;12.370;2023-02-14T06:55:36;25.23;;;10.93;;
71435;SDS011;59251;51.326;12.370;2023-02-14T06:58:02;26.80;;;10.13;;
71435;SDS011;59251;51.326;12.370;2023-02-14T07:00:27;24.43;;;10.23;;
71435;SDS011;59251;51.326;12.370;2023-02-14T07:02:52;23.53;;;10.43;;
71435;SDS011;59251;51.326;12.370;2023-02-14T07:05:18;23.50;;;9.83;;
71435;SDS011;59251;51.326;12.370;2023-02-14T07:07:43;22.37;;;9.50;;
71435;SDS011;59251;51.326;12.370;2023-02-14T07:10:09;22.88;;;9.68;;
71435;SDS011;59251;51.326;12.370;2023-02-14T07:12:35;25.38;;;10.68;;
71435;SDS011;59251;51.326;12.370;2023-02-14T07:15:03;25.03;;;10.40;;
71435;SDS011;59251;51.326;12.370;2023-02-14T07:17:30;23.95;;;10.77;;
71435;SDS011;59251;51.326;12.370;2023-02-14T07:19:55;26.00;;;10.67;;
71435;SDS011;59251;51.326;12.370;2023-02-14T07:22:20;25.58;;;10.70;;
71435;SDS011;59251;51.326;12.370;2023-02-14T07:24:46;22.20;;;10.45;;
71435;SDS011;59251;51.326;12.370;2023-02-14T07:27:11;23.53;;;10.23;;
71435;SDS011;59251;51.326;12.370;2023-02-14T07:29:36;22.60;;;10.10;;
71435;SDS011;59251;51.326;12.370;2023-02-14T07:32:02;21.53;;;9.87;;
71435;SDS011;59251;51.326;12.370;2023-02-14T07:34:27;22.10;;;9.77;;
71435;SDS011;59251;51.326;12.370;2023-02-14T07:36:52;22.97;;;10.57;;
71435;SDS011;59251;51.326;12.370;2023-02-14T07:39:18;24.13;;;10.37;;
71435;SDS011;59251;51.326;12.370;2023-02-14T07:41:43;24.47;;;10.50;;
71435;SDS011;59251;51.326;12.370;2023-02-14T07:44:08;24.77;;;10.20;;
71435;SDS011;59251;51.326;12.370;2023-02-14T07:46:34;21.80;;;9.77;;
71435;SDS011;59251;51.326;12.370;2023-02-14T07:48:59;23.17;;;10.60;;
71435;SDS011;59251;51.326;12.370;2023-02-14T07:51:24;21.10;;;10.00;;
71435;SDS011;59251;51.326;12.370;2023-02-14T07:53:50;22.67;;;10.50;;
71435;SDS011;59251;51.326;12.370;2023-02-14T07:56:15;23.07;;;10.50;;
71435;SDS011;59251;51.326;12.370;2023-02-14T07:58:40;23.73;;;10.23;;
71435;SDS011;59251;51.326;12.370;2023-02-14T08:01:06;21.83;;;10.50;;
71435;SDS011;59251;51.326;12.370;2023-02-14T08:03:31;24.08;;;10.05;;
71435;SDS011;59251;51.326;12.370;2023-02-14T08:05:57;22.50;;;8.97;;
71435;SDS011;59251;51.326;12.370;2023-02-14T08:08:26;21.60;;;9.77;;
71435;SDS011;59251;51.326;12.370;2023-02-14T08:10:53;32.83;;;13.88;;
71435;SDS011;59251;51.326;12.370;2023-02-14T08:13:18;22.03;;;10.50;;
71435;SDS011;59251;51.326;12.370;2023-02-14T08:15:44;21.83;;;8.70;;
71435;SDS011;59251;51.326;12.370;2023-02-14T08:18:28;21.93;;;9.33;;
71435;SDS011;59251;51.326;12.370;2023-02-14T08:20:54;22.45;;;9.60;;
71435;SDS011;59251;51.326;12.370;2023-02-14T08:23:19;21.83;;;9.77;;
71435;SDS011;59251;51.326;12.370;2023-02-14T08:25:45;23.35;;;10.38;;
71435;SDS011;59251;51.326;12.370;2023-02-14T08:28:12;24.73;;;9.80;;
71435;SDS011;59251;51.326;12.370;2023-02-14T08:30:38;22.98;;;10.18;;
71435;SDS011;59251;51.326;12.370;2023-02-14T08:33:04;25.10;;;9.77;;
71435;SDS011;59251;51.326;12.370;2023-02-14T08:35:30;21.63;;;9.97;;
71435;SDS011;59251;51.326;12.370;2023-02-14T08:37:55;22.63;;;10.15;;
71435;SDS011;59251;51.326;12.370;2023-02-14T08:40:21;28.60;;;10.38;;
71435;SDS011;59251;51.326;12.370;2023-02-14T08:42:46;23.20;;;10.20;;
71435;SDS011;59251;51.326;12.370;2023-02-14T08:45:12;22.23;;;9.47;;
71435;SDS011;59251;51.326;12.370;2023-02-14T08:47:37;26.43;;;10.17;;
71435;SDS011;59251;51.326;12.370;2023-02-14T08:50:04;24.83;;;10.60;;
71435;SDS011;59251;51.326;12.370;2023-02-14T08:52:31;26.52;;;10.50;;
71435;SDS011;59251;51.326;12.370;2023-02-14T08:54:56;20.60;;;8.97;;
71435;SDS011;59251;51.326;12.370;2023-02-14T08:57:22;26.40;;;10.35;;
71435;SDS011;59251;51.326;12.370;2023-02-14T08:59:47;19.03;;;8.80;;
71435;SDS011;59251;51.326;12.370;2023-02-14T09:02:13;20.30;;;9.50;;
71435;SDS011;59251;51.326;12.370;2023-02-14T09:04:40;23.55;;;9.95;;
71435;SDS011;59251;51.326;12.370;2023-02-14T09:07:05;22.13;;;9.70;;
71435;SDS011;59251;51.326;12.370;2023-02-14T09:09:31;23.70;;;9.97;;
71435;SDS011;59251;51.326;12.370;2023-02-14T09:11:56;21.55;;;9.77;;
71435;SDS011;59251;51.326;12.370;2023-02-14T09:14:22;19.50;;;8.97;;
71435;SDS011;59251;51.326;12.370;2023-02-14T09:16:48;20.45;;;9.48;;
71435;SDS011;59251;51.326;12.370;2023-02-14T09:19:14;22.67;;;9.03;;
71435;SDS011;59251;51.326;12.370;2023-02-14T09:21:39;23.20;;;9.95;;
71435;SDS011;59251;51.326;12.370;2023-02-14T09:24:05;21.87;;;10.73;;
71435;SDS011;59251;51.326;12.370;2023-02-14T09:26:31;23.43;;;10.60;;
71435;SDS011;59251;51.326;12.370;2023-02-14T09:28:56;20.17;;;8.95;;
71435;SDS011;59251;51.326;12.370;2023-02-14T09:31:22;20.80;;;8.20;;
71435;SDS011;59251;51.326;12.370;2023-02-14T09:33:49;23.92;;;10.15;;
71435;SDS011;59251;51.326;12.370;2023-02-14T09:36:15;23.80;;;9.80;;
71435;SDS011;59251;51.326;12.370;2023-02-14T09:38:40;22.73;;;9.80;;
71435;SDS011;59251;51.326;12.370;2023-02-14T09:41:06;22.87;;;10.20;;
71435;SDS011;59251;51.326;12.370;2023-02-14T09:43:50;31.40;;;11.10;;
71435;SDS011;59251;51.326;12.370;2023-02-14T09:46:40;25.08;;;10.60;;
71435;SDS011;59251;51.326;12.370;2023-02-14T09:49:12;23.50;;;11.10;;
71435;SDS011;59251;51.326;12.370;2023-02-14T09:51:41;27.05;;;11.25;;
71435;SDS011;59251;51.326;12.370;2023-02-14T09:54:12;26.25;;;11.77;;
71435;SDS011;59251;51.326;12.370;2023-02-14T09:59:46;26.27;;;12.98;;
71435;SDS011;59251;51.326;12.370;2023-02-14T10:04:50;24.45;;;10.73;;
71435;SDS011;59251;51.326;12.370;2023-02-14T10:07:38;26.10;;;10.50;;
71435;SDS011;59251;51.326;12.370;2023-02-14T10:15:38;26.67;;;10.80;;
71435;SDS011;59251;51.326;12.370;2023-02-14T10:20:48;25.55;;;9.73;;
71435;SDS011;59251;51.326;12.370;2023-02-14T10:25:53;29.50;;;12.20;;
71435;SDS011;59251;51.326;12.370;2023-02-14T10:28:25;22.50;;;9.45;;
71435;SDS011;59251;51.326;12.370;2023-02-14T10:33:55;20.08;;;8.63;;
71435;SDS011;59251;51.326;12.370;2023-02-14T10:39:29;19.00;;;8.68;;
71435;SDS011;59251;51.326;12.370;2023-02-14T10:42:11;24.73;;;10.48;;
71435;SDS011;59251;51.326;12.370;2023-02-14T10:45:04;23.73;;;10.63;;
71435;SDS011;59251;51.326;12.370;2023-02-14T10:47:36;25.08;;;10.75;;
71435;SDS011;59251;51.326;12.370;2023-02-14T10:50:10;22.83;;;10.40;;
71435;SDS011;59251;51.326;12.370;2023-02-14T10:55:58;28.05;;;10.70;;
71435;SDS011;59251;51.326;12.370;2023-02-14T10:58:26;25.15;;;9.98;;
71435;SDS011;59251;51.326;12.370;2023-02-14T11:00:58;26.42;;;10.57;;
71435;SDS011;59251;51.326;12.370;2023-02-14T11:03:24;24.23;;;10.97;;
71435;SDS011;59251;51.326;12.370;2023-02-14T11:05:51;27.48;;;10.60;;
71435;SDS011;59251;51.326;12.370;2023-02-14T11:08:35;23.53;;;10.70;;
71435;SDS011;59251;51.326;12.370;2023-02-14T11:13:52;24.88;;;11.88;;
71435;SDS011;59251;51.326;12.370;2023-02-14T11:21:41;26.50;;;10.15;;
71435;SDS011;59251;51.326;12.370;2023-02-14T11:26:47;24.60;;;9.53;;
71435;SDS011;59251;51.326;12.370;2023-02-14T11:29:19;23.10;;;10.05;;
71435;SDS011;59251;51.326;12.370;2023-02-14T11:31:51;26.33;;;10.52;;
71435;SDS011;59251;51.326;12.370;2023-02-14T11:34:23;23.90;;;9.50;;
71435;SDS011;59251;51.326;12.370;2023-02-14T11:36:55;20.97;;;9.97;;
71435;SDS011;59251;51.326;12.370;2023-02-14T11:39:31;21.95;;;10.02;;
71435;SDS011;59251;51.326;12.370;2023-02-14T11:41:59;19.60;;;9.32;;
71435;SDS011;59251;51.326;12.370;2023-02-14T11:44:28;21.85;;;10.25;;
71435;SDS011;59251;51.326;12.370;2023-02-14T11:46:57;23.83;;;9.60;;
71435;SDS011;59251;51.326;12.370;2023-02-14T11:49:42;23.17;;;10.30;;
71435;SDS011;59251;51.326;12.370;2023-02-14T11:52:19;24.60;;;10.52;;
71435;SDS011;59251;51.326;12.370;2023-02-14T11:54:50;23.20;;;9.95;;
71435;SDS011;59251;51.326;12.370;2023-02-14T11:57:31;22.35;;;10.32;;
71435;SDS011;59251;51.326;12.370;2023-02-14T12:00:00;29.47;;;11.27;;
71435;SDS011;59251;51.326;12.370;2023-02-14T12:05:16;22.70;;;10.43;;
71435;SDS011;59251;51.326;12.370;2023-02-14T12:07:45;22.95;;;8.45;;
71435;SDS011;59251;51.326;12.370;2023-02-14T12:12:52;19.20;;;9.00;;
71435;SDS011;59251;51.326;12.370;2023-02-14T12:20:58;17.48;;;7.90;;
71435;SDS011;59251;51.326;12.370;2023-02-14T12:26:34;20.40;;;8.93;;
71435;SDS011;59251;51.326;12.370;2023-02-14T12:29:17;16.75;;;8.05;;
71435;SDS011;59251;51.326;12.370;2023-02-14T12:32:15;19.00;;;8.77;;
71435;SDS011;59251;51.326;12.370;2023-02-14T12:34:46;17.63;;;7.93;;
71435;SDS011;59251;51.326;12.370;2023-02-14T12:42:59;15.63;;;7.53;;
71435;SDS011;59251;51.326;12.370;2023-02-14T12:56:03;17.35;;;8.38;;
71435;SDS011;59251;51.326;12.370;2023-02-14T13:07:27;15.05;;;7.72;;
71435;SDS011;59251;51.326;12.370;2023-02-14T13:10:14;16.98;;;7.75;;
71435;SDS011;59251;51.326;12.370;2023-02-14T13:17:52;26.70;;;9.05;;
71435;SDS011;59251;51.326;12.370;2023-02-14T13:20:54;16.42;;;7.97;;
71435;SDS011;59251;51.326;12.370;2023-02-14T13:23:26;15.85;;;7.63;;
71435;SDS011;59251;51.326;12.370;2023-02-14T13:26:00;19.48;;;7.95;;
71435;SDS011;59251;51.326;12.370;2023-02-14T13:28:30;17.42;;;7.93;;
71435;SDS011;59251;51.326;12.370;2023-02-14T13:30:57;16.98;;;7.88;;
71435;SDS011;59251;51.326;12.370;2023-02-14T13:35:53;16.23;;;7.03;;
71435;SDS011;59251;51.326;12.370;2023-02-14T13:38:20;16.33;;;7.35;;
71435;SDS011;59251;51.326;12.370;2023-02-14T13:40:48;14.05;;;6.95;;
71435;SDS011;59251;51.326;12.370;2023-02-14T13:43:46;22.55;;;8.15;;
71435;SDS011;59251;51.326;12.370;2023-02-14T13:51:48;15.68;;;7.10;;
71435;SDS011;59251;51.326;12.370;2023-02-14T13:54:19;18.10;;;6.60;;
71435;SDS011;59251;51.326;12.370;2023-02-14T13:56:59;15.52;;;7.10;;
71435;SDS011;59251;51.326;12.370;2023-02-14T13:59:31;14.63;;;7.13;;
71435;SDS011;59251;51.326;12.370;2023-02-14T14:04:51;19.20;;;8.55;;
71435;SDS011;59251;51.326;12.370;2023-02-14T14:07:26;17.70;;;8.27;;
71435;SDS011;59251;51.326;12.370;2023-02-14T14:09:55;18.13;;;8.82;;
71435;SDS011;59251;51.326;12.370;2023-02-14T14:17:29;20.50;;;8.82;;
71435;SDS011;59251;51.326;12.370;2023-02-14T14:19:57;20.03;;;9.37;;
71435;SDS011;59251;51.326;12.370;2023-02-14T14:22:24;18.73;;;7.50;;
71435;SDS011;59251;51.326;12.370;2023-02-14T14:24:54;21.30;;;8.48;;
71435;SDS011;59251;51.326;12.370;2023-02-14T14:27:23;17.90;;;9.15;;
71435;SDS011;59251;51.326;12.370;2023-02-14T14:29:52;22.33;;;9.20;;
71435;SDS011;59251;51.326;12.370;2023-02-14T14:32:35;18.25;;;8.48;;
71435;SDS011;59251;51.326;12.370;2023-02-14T14:35:03;22.48;;;8.60;;
71435;SDS011;59251;51.326;12.370;2023-02-14T14:37:30;20.88;;;8.35;;
71435;SDS011;59251;51.326;12.370;2023-02-14T14:39:58;17.77;;;7.75;;
71435;SDS011;59251;51.326;12.370;2023-02-14T14:42:26;17.13;;;8.27;;
71435;SDS011;59251;51.326;12.370;2023-02-14T14:47:22;18.20;;;8.43;;
71435;SDS011;59251;51.326;12.370;2023-02-14T14:49:50;19.30;;;8.75;;
71435;SDS011;59251;51.326;12.370;2023-02-14T14:52:30;18.25;;;8.30;;
71435;SDS011;59251;51.326;12.370;2023-02-14T14:54:58;18.67;;;8.48;;
71435;SDS011;59251;51.326;12.370;2023-02-14T14:57:25;24.05;;;9.27;;
71435;SDS011;59251;51.326;12.370;2023-02-14T15:00:03;18.33;;;8.63;;
71435;SDS011;59251;51.326;12.370;2023-02-14T15:02:33;19.73;;;8.43;;
71435;SDS011;59251;51.326;12.370;2023-02-14T15:05:09;16.67;;;7.83;;
71435;SDS011;59251;51.326;12.370;2023-02-14T15:07:38;16.90;;;8.23;;
71435;SDS011;59251;51.326;12.370;2023-02-14T15:10:19;15.27;;;8.83;;
71435;SDS011;59251;51.326;12.370;2023-02-14T15:12:46;16.08;;;8.00;;
71435;SDS011;59251;51.326;12.370;2023-02-14T15:15:30;18.73;;;8.50;;
71435;SDS011;59251;51.326;12.370;2023-02-14T15:17:56;20.70;;;8.95;;
71435;SDS011;59251;51.326;12.370;2023-02-14T15:20:21;21.50;;;9.20;;
71435;SDS011;59251;51.326;12.370;2023-02-14T15:22:48;18.75;;;9.15;;
71435;SDS011;59251;51.326;12.370;2023-02-14T15:25:17;19.23;;;8.25;;
71435;SDS011;59251;51.326;12.370;2023-02-14T15:27:44;17.92;;;8.43;;
71435;SDS011;59251;51.326;12.370;2023-02-14T15:33:19;19.50;;;9.60;;
71435;SDS011;59251;51.326;12.370;2023-02-14T15:35:44;17.47;;;8.73;;
71435;SDS011;59251;51.326;12.370;2023-02-14T15:38:10;20.15;;;9.30;;
71435;SDS011;59251;51.326;12.370;2023-02-14T15:40:37;20.95;;;9.93;;
71435;SDS011;59251;51.326;12.370;2023-02-14T15:45:41;21.90;;;9.45;;
71435;SDS011;59251;51.326;12.370;2023-02-14T15:48:31;23.27;;;10.53;;
71435;SDS011;59251;51.326;12.370;2023-02-14T15:50:57;22.65;;;9.77;;
71435;SDS011;59251;51.326;12.370;2023-02-14T15:56:03;18.58;;;9.05;;
71435;SDS011;59251;51.326;12.370;2023-02-14T15:58:52;19.57;;;8.93;;
71435;SDS011;59251;51.326;12.370;2023-02-14T16:01:24;21.45;;;9.73;;
71435;SDS011;59251;51.326;12.370;2023-02-14T16:03:51;22.45;;;10.30;;
71435;SDS011;59251;51.326;12.370;2023-02-14T16:06:40;21.08;;;9.27;;
71435;SDS011;59251;51.326;12.370;2023-02-14T16:09:27;27.75;;;9.75;;
71435;SDS011;59251;51.326;12.370;2023-02-14T16:11:54;27.57;;;10.03;;
71435;SDS011;59251;51.326;12.370;2023-02-14T16:14:33;22.73;;;9.45;;
71435;SDS011;59251;51.326;12.370;2023-02-14T16:17:04;21.10;;;10.03;;
71435;SDS011;59251;51.326;12.370;2023-02-14T16:19:36;23.50;;;10.15;;
71435;SDS011;59251;51.326;12.370;2023-02-14T16:22:11;26.58;;;10.57;;
71435;SDS011;59251;51.326;12.370;2023-02-14T16:24:56;25.92;;;11.15;;
71435;SDS011;59251;51.326;12.370;2023-02-14T16:27:25;24.13;;;9.85;;
71435;SDS011;59251;51.326;12.370;2023-02-14T16:29:50;25.13;;;10.83;;
71435;SDS011;59251;51.326;12.370;2023-02-14T16:32:19;26.73;;;10.83;;
71435;SDS011;59251;51.326;12.370;2023-02-14T16:34:45;22.92;;;10.02;;
71435;SDS011;59251;51.326;12.370;2023-02-14T16:39:57;27.38;;;11.32;;
71435;SDS011;59251;51.326;12.370;2023-02-14T16:42:24;24.02;;;10.02;;
71435;SDS011;59251;51.326;12.370;2023-02-14T16:44:50;25.00;;;10.40;;
71435;SDS011;59251;51.326;12.370;2023-02-14T16:47:16;26.92;;;10.25;;
71435;SDS011;59251;51.326;12.370;2023-02-14T16:49:43;22.47;;;10.17;;
71435;SDS011;59251;51.326;12.370;2023-02-14T16:52:12;30.60;;;11.95;;
71435;SDS011;59251;51.326;12.370;2023-02-14T16:54:40;23.83;;;11.30;;
71435;SDS011;59251;51.326;12.370;2023-02-14T16:57:06;27.10;;;11.15;;
71435;SDS011;59251;51.326;12.370;2023-02-14T16:59:38;24.33;;;10.73;;
71435;SDS011;59251;51.326;12.370;2023-02-14T17:02:03;25.13;;;10.98;;
71435;SDS011;59251;51.326;12.370;2023-02-14T17:04:28;25.87;;;10.47;;
71435;SDS011;59251;51.326;12.370;2023-02-14T17:06:54;24.67;;;11.20;;
71435;SDS011;59251;51.326;12.370;2023-02-14T17:09:25;29.27;;;12.35;;